sensor_id;sensor_type;location;lat;lon;timestamp;P1;durP1;ratioP1;P2;durP2;ratioP2
67074;SDS011;53990;50.334;18.640;2023-09-07T00:01:53;22.60;;;15.70;;
67074;SDS011;53990;50.334;18.640;2023-09-07T00:04:20;27.60;;;16.50;;
67074;SDS011;53990;50.334;18.640;2023-09-07T00:06:49;28.30;;;16.60;;
67074;SDS011;53990;50.334;18.640;2023-09-07T00:09:16;25.30;;;16.80;;
67074;SDS011;53990;50.334;18.640;2023-09-07T00:11:44;24.00;;;16.10;;
67074;SDS011;53990;50.334;18.640;2023-09-07T00:14:12;27.50;;;17.10;;
67074;SDS011;53990;50.334;18.640;2023-09-07T00:16:38;24.50;;;16.40;;
67074;SDS011;53990;50.334;18.640;2023-09-07T00:19:05;24.80;;;16.10;;
67074;SDS011;53990;50.334;18.640;2023-09-07T00:21:32;23.60;;;16.10;;
67074;SDS011;53990;50.334;18.640;2023-09-07T00:23:58;28.60;;;16.90;;
67074;SDS011;53990;50.334;18.640;2023-09-07T00:26:25;26.60;;;15.90;;
67074;SDS011;53990;50.334;18.640;2023-09-07T00:28:52;26.20;;;16.30;;
67074;SDS011;53990;50.334;18.640;2023-09-07T00:31:18;23.70;;;16.10;;
67074;SDS011;53990;50.334;18.640;2023-09-07T00:33:45;24.50;;;16.60;;
67074;SDS011;53990;50.334;18.640;2023-09-07T00:36:12;24.50;;;15.80;;
67074;SDS011;53990;50.334;18.640;2023-09-07T00:38:38;28.00;;;17.20;;
67074;SDS011;53990;50.334;18.640;2023-09-07T00:41:05;24.70;;;15.30;;
67074;SDS011;53990;50.334;18.640;2023-09-07T00:43:32;25.30;;;15.20;;
67074;SDS011;53990;50.334;18.640;2023-09-07T00:45:58;28.30;;;15.90;;
67074;SDS011;53990;50.334;18.640;2023-09-07T00:48:25;29.10;;;16.50;;
67074;SDS011;53990;50.334;18.640;2023-09-07T00:50:53;26.70;;;16.40;;
67074;SDS011;53990;50.334;18.640;2023-09-07T00:53:20;30.40;;;16.60;;
67074;SDS011;53990;50.334;18.640;2023-09-07T00:55:47;29.40;;;17.10;;
67074;SDS011;53990;50.334;18.640;2023-09-07T00:58:14;25.50;;;16.10;;
67074;SDS011;53990;50.334;18.640;2023-09-07T01:00:40;27.00;;;16.90;;
67074;SDS011;53990;50.334;18.640;2023-09-07T01:03:07;25.70;;;16.40;;
67074;SDS011;53990;50.334;18.640;2023-09-07T01:05:45;26.00;;;16.70;;
67074;SDS011;53990;50.334;18.640;2023-09-07T01:08:25;25.20;;;16.70;;
67074;SDS011;53990;50.334;18.640;2023-09-07T01:10:53;27.80;;;16.20;;
67074;SDS011;53990;50.334;18.640;2023-09-07T01:13:20;28.60;;;17.50;;
67074;SDS011;53990;50.334;18.640;2023-09-07T01:15:47;23.80;;;16.00;;
67074;SDS011;53990;50.334;18.640;2023-09-07T01:18:14;26.30;;;16.30;;
67074;SDS011;53990;50.334;18.640;2023-09-07T01:20:42;24.70;;;16.50;;
67074;SDS011;53990;50.334;18.640;2023-09-07T01:23:11;26.30;;;16.50;;
67074;SDS011;53990;50.334;18.640;2023-09-07T01:25:40;29.30;;;17.30;;
67074;SDS011;53990;50.334;18.640;2023-09-07T01:28:08;26.00;;;17.50;;
67074;SDS011;53990;50.334;18.640;2023-09-07T01:30:35;27.70;;;16.70;;
67074;SDS011;53990;50.334;18.640;2023-09-07T01:33:04;25.80;;;16.70;;
67074;SDS011;53990;50.334;18.640;2023-09-07T01:35:31;25.60;;;17.30;;
67074;SDS011;53990;50.334;18.640;2023-09-07T01:37:59;28.50;;;17.50;;
67074;SDS011;53990;50.334;18.640;2023-09-07T01:40:26;27.70;;;18.00;;
67074;SDS011;53990;50.334;18.640;2023-09-07T01:42:52;27.90;;;18.50;;
67074;SDS011;53990;50.334;18.640;2023-09-07T01:45:19;27.50;;;17.70;;
67074;SDS011;53990;50.334;18.640;2023-09-07T01:47:46;26.50;;;17.40;;
67074;SDS011;53990;50.334;18.640;2023-09-07T01:50:12;26.40;;;18.10;;
67074;SDS011;53990;50.334;18.640;2023-09-07T01:52:40;30.10;;;17.90;;
67074;SDS011;53990;50.334;18.640;2023-09-07T01:55:07;28.50;;;18.00;;
67074;SDS011;53990;50.334;18.640;2023-09-07T01:57:34;27.80;;;17.40;;
67074;SDS011;53990;50.334;18.640;2023-09-07T02:00:01;32.20;;;19.90;;
67074;SDS011;53990;50.334;18.640;2023-09-07T02:02:27;25.80;;;17.40;;
67074;SDS011;53990;50.334;18.640;2023-09-07T02:04:54;27.70;;;18.50;;
67074;SDS011;53990;50.334;18.640;2023-09-07T02:07:21;27.90;;;17.60;;
67074;SDS011;53990;50.334;18.640;2023-09-07T02:09:47;31.90;;;19.10;;
67074;SDS011;53990;50.334;18.640;2023-09-07T02:12:14;34.10;;;20.00;;
67074;SDS011;53990;50.334;18.640;2023-09-07T02:14:41;29.10;;;19.20;;
67074;SDS011;53990;50.334;18.640;2023-09-07T02:17:07;34.70;;;20.60;;
67074;SDS011;53990;50.334;18.640;2023-09-07T02:19:34;28.70;;;19.20;;
67074;SDS011;53990;50.334;18.640;2023-09-07T02:22:02;32.20;;;18.60;;
67074;SDS011;53990;50.334;18.640;2023-09-07T02:24:28;30.40;;;19.90;;
67074;SDS011;53990;50.334;18.640;2023-09-07T02:26:55;27.60;;;18.30;;
67074;SDS011;53990;50.334;18.640;2023-09-07T02:29:22;29.60;;;19.30;;
67074;SDS011;53990;50.334;18.640;2023-09-07T02:31:49;28.20;;;18.40;;
67074;SDS011;53990;50.334;18.640;2023-09-07T02:34:15;25.70;;;18.20;;
67074;SDS011;53990;50.334;18.640;2023-09-07T02:36:42;32.40;;;18.50;;
67074;SDS011;53990;50.334;18.640;2023-09-07T02:39:09;30.00;;;19.00;;
67074;SDS011;53990;50.334;18.640;2023-09-07T02:41:37;27.80;;;19.10;;
67074;SDS011;53990;50.334;18.640;2023-09-07T02:44:05;30.10;;;19.20;;
67074;SDS011;53990;50.334;18.640;2023-09-07T02:46:32;33.40;;;18.80;;
67074;SDS011;53990;50.334;18.640;2023-09-07T02:48:58;31.90;;;19.70;;
67074;SDS011;53990;50.334;18.640;2023-09-07T02:51:25;31.30;;;18.60;;
67074;SDS011;53990;50.334;18.640;2023-09-07T02:53:53;30.60;;;18.80;;
67074;SDS011;53990;50.334;18.640;2023-09-07T02:56:20;27.70;;;18.80;;
67074;SDS011;53990;50.334;18.640;2023-09-07T02:58:46;28.30;;;17.90;;
67074;SDS011;53990;50.334;18.640;2023-09-07T03:01:13;26.60;;;18.10;;
67074;SDS011;53990;50.334;18.640;2023-09-07T03:03:40;28.50;;;17.50;;
67074;SDS011;53990;50.334;18.640;2023-09-07T03:06:13;29.40;;;18.50;;
67074;SDS011;53990;50.334;18.640;2023-09-07T03:08:40;28.70;;;18.10;;
67074;SDS011;53990;50.334;18.640;2023-09-07T03:11:08;29.00;;;18.00;;
67074;SDS011;53990;50.334;18.640;2023-09-07T03:13:35;28.40;;;17.80;;
67074;SDS011;53990;50.334;18.640;2023-09-07T03:16:02;25.00;;;16.80;;
67074;SDS011;53990;50.334;18.640;2023-09-07T03:18:30;28.30;;;17.50;;
67074;SDS011;53990;50.334;18.640;2023-09-07T03:21:00;26.80;;;16.60;;
67074;SDS011;53990;50.334;18.640;2023-09-07T03:23:32;25.00;;;17.20;;
67074;SDS011;53990;50.334;18.640;2023-09-07T03:26:00;26.10;;;17.50;;
67074;SDS011;53990;50.334;18.640;2023-09-07T03:28:26;26.90;;;17.60;;
67074;SDS011;53990;50.334;18.640;2023-09-07T03:30:54;23.90;;;17.40;;
67074;SDS011;53990;50.334;18.640;2023-09-07T03:33:22;26.90;;;18.00;;
67074;SDS011;53990;50.334;18.640;2023-09-07T03:35:49;23.80;;;17.30;;
67074;SDS011;53990;50.334;18.640;2023-09-07T03:38:18;26.10;;;17.90;;
67074;SDS011;53990;50.334;18.640;2023-09-07T03:40:45;27.80;;;18.00;;
67074;SDS011;53990;50.334;18.640;2023-09-07T03:43:11;25.60;;;17.60;;
67074;SDS011;53990;50.334;18.640;2023-09-07T03:45:38;26.60;;;18.20;;
67074;SDS011;53990;50.334;18.640;2023-09-07T03:48:05;28.40;;;18.60;;
67074;SDS011;53990;50.334;18.640;2023-09-07T03:50:32;26.90;;;18.30;;
67074;SDS011;53990;50.334;18.640;2023-09-07T03:52:59;29.60;;;19.50;;
67074;SDS011;53990;50.334;18.640;2023-09-07T03:55:27;28.80;;;19.50;;
67074;SDS011;53990;50.334;18.640;2023-09-07T03:57:53;31.80;;;19.40;;
67074;SDS011;53990;50.334;18.640;2023-09-07T04:00:20;25.50;;;18.20;;
67074;SDS011;53990;50.334;18.640;2023-09-07T04:02:47;30.10;;;19.50;;
67074;SDS011;53990;50.334;18.640;2023-09-07T04:05:14;31.40;;;19.80;;
67074;SDS011;53990;50.334;18.640;2023-09-07T04:07:40;27.10;;;18.60;;
67074;SDS011;53990;50.334;18.640;2023-09-07T04:10:07;30.30;;;20.00;;
67074;SDS011;53990;50.334;18.640;2023-09-07T04:12:34;27.70;;;19.60;;
67074;SDS011;53990;50.334;18.640;2023-09-07T04:15:02;26.80;;;17.80;;
67074;SDS011;53990;50.334;18.640;2023-09-07T04:17:29;24.40;;;17.50;;
67074;SDS011;53990;50.334;18.640;2023-09-07T04:19:56;28.10;;;19.60;;
67074;SDS011;53990;50.334;18.640;2023-09-07T04:22:22;26.50;;;17.70;;
67074;SDS011;53990;50.334;18.640;2023-09-07T04:24:49;27.20;;;18.60;;
67074;SDS011;53990;50.334;18.640;2023-09-07T04:27:16;28.10;;;18.70;;
67074;SDS011;53990;50.334;18.640;2023-09-07T04:29:42;27.70;;;18.70;;
67074;SDS011;53990;50.334;18.640;2023-09-07T04:32:09;27.00;;;19.10;;
67074;SDS011;53990;50.334;18.640;2023-09-07T04:34:36;27.10;;;18.30;;
67074;SDS011;53990;50.334;18.640;2023-09-07T04:37:03;32.00;;;18.50;;
67074;SDS011;53990;50.334;18.640;2023-09-07T04:39:30;26.20;;;17.90;;
67074;SDS011;53990;50.334;18.640;2023-09-07T04:41:56;27.00;;;18.30;;
67074;SDS011;53990;50.334;18.640;2023-09-07T04:44:23;25.80;;;17.30;;
67074;SDS011;53990;50.334;18.640;2023-09-07T04:46:50;32.30;;;19.70;;
67074;SDS011;53990;50.334;18.640;2023-09-07T04:49:18;30.10;;;18.40;;
67074;SDS011;53990;50.334;18.640;2023-09-07T04:51:45;33.80;;;19.10;;
67074;SDS011;53990;50.334;18.640;2023-09-07T04:54:11;31.50;;;19.70;;
67074;SDS011;53990;50.334;18.640;2023-09-07T04:56:39;27.30;;;18.80;;
67074;SDS011;53990;50.334;18.640;2023-09-07T04:59:05;30.10;;;19.80;;
67074;SDS011;53990;50.334;18.640;2023-09-07T05:01:32;33.70;;;20.70;;
67074;SDS011;53990;50.334;18.640;2023-09-07T05:03:59;31.80;;;19.40;;
67074;SDS011;53990;50.334;18.640;2023-09-07T05:06:25;28.70;;;19.00;;
67074;SDS011;53990;50.334;18.640;2023-09-07T05:08:52;27.20;;;18.00;;
67074;SDS011;53990;50.334;18.640;2023-09-07T05:11:19;28.60;;;18.80;;
67074;SDS011;53990;50.334;18.640;2023-09-07T05:13:46;28.30;;;18.60;;
67074;SDS011;53990;50.334;18.640;2023-09-07T05:16:13;30.10;;;19.80;;
67074;SDS011;53990;50.334;18.640;2023-09-07T05:18:41;24.90;;;18.30;;
67074;SDS011;53990;50.334;18.640;2023-09-07T05:21:15;28.00;;;18.20;;
67074;SDS011;53990;50.334;18.640;2023-09-07T05:23:42;26.90;;;18.50;;
67074;SDS011;53990;50.334;18.640;2023-09-07T05:26:09;29.10;;;18.90;;
67074;SDS011;53990;50.334;18.640;2023-09-07T05:28:36;30.10;;;18.60;;
67074;SDS011;53990;50.334;18.640;2023-09-07T05:31:03;32.00;;;19.70;;
67074;SDS011;53990;50.334;18.640;2023-09-07T05:33:30;25.70;;;18.30;;
67074;SDS011;53990;50.334;18.640;2023-09-07T05:35:57;28.30;;;18.70;;
67074;SDS011;53990;50.334;18.640;2023-09-07T05:38:23;30.50;;;20.00;;
67074;SDS011;53990;50.334;18.640;2023-09-07T05:40:50;31.10;;;19.50;;
67074;SDS011;53990;50.334;18.640;2023-09-07T05:43:20;29.70;;;19.80;;
67074;SDS011;53990;50.334;18.640;2023-09-07T05:45:47;31.10;;;20.30;;
67074;SDS011;53990;50.334;18.640;2023-09-07T05:48:14;38.10;;;21.60;;
67074;SDS011;53990;50.334;18.640;2023-09-07T05:50:44;27.80;;;20.90;;
67074;SDS011;53990;50.334;18.640;2023-09-07T05:53:11;31.70;;;19.50;;
67074;SDS011;53990;50.334;18.640;2023-09-07T05:55:38;29.10;;;20.10;;
67074;SDS011;53990;50.334;18.640;2023-09-07T05:58:07;33.90;;;21.00;;
67074;SDS011;53990;50.334;18.640;2023-09-07T06:00:37;31.50;;;21.20;;
67074;SDS011;53990;50.334;18.640;2023-09-07T06:03:07;30.80;;;20.10;;
67074;SDS011;53990;50.334;18.640;2023-09-07T06:05:34;33.70;;;20.30;;
67074;SDS011;53990;50.334;18.640;2023-09-07T06:08:02;32.30;;;20.90;;
67074;SDS011;53990;50.334;18.640;2023-09-07T06:10:29;35.80;;;21.90;;
67074;SDS011;53990;50.334;18.640;2023-09-07T06:12:56;36.10;;;22.20;;
67074;SDS011;53990;50.334;18.640;2023-09-07T06:15:24;37.30;;;21.20;;
67074;SDS011;53990;50.334;18.640;2023-09-07T06:17:51;37.10;;;22.30;;
67074;SDS011;53990;50.334;18.640;2023-09-07T06:20:17;35.00;;;22.30;;
67074;SDS011;53990;50.334;18.640;2023-09-07T06:22:46;36.00;;;20.90;;
67074;SDS011;53990;50.334;18.640;2023-09-07T06:25:12;36.00;;;19.60;;
67074;SDS011;53990;50.334;18.640;2023-09-07T06:27:39;32.80;;;19.90;;
67074;SDS011;53990;50.334;18.640;2023-09-07T06:30:07;32.40;;;19.60;;
67074;SDS011;53990;50.334;18.640;2023-09-07T06:32:33;34.20;;;18.30;;
67074;SDS011;53990;50.334;18.640;2023-09-07T06:35:00;33.70;;;18.40;;
67074;SDS011;53990;50.334;18.640;2023-09-07T06:37:27;29.50;;;17.50;;
67074;SDS011;53990;50.334;18.640;2023-09-07T06:39:54;32.30;;;18.20;;
67074;SDS011;53990;50.334;18.640;2023-09-07T06:42:21;31.40;;;18.20;;
67074;SDS011;53990;50.334;18.640;2023-09-07T06:44:48;34.20;;;21.60;;
67074;SDS011;53990;50.334;18.640;2023-09-07T06:47:14;30.10;;;18.30;;
67074;SDS011;53990;50.334;18.640;2023-09-07T06:49:41;34.20;;;18.90;;
67074;SDS011;53990;50.334;18.640;2023-09-07T06:52:08;28.00;;;17.20;;
67074;SDS011;53990;50.334;18.640;2023-09-07T06:54:34;31.80;;;17.50;;
67074;SDS011;53990;50.334;18.640;2023-09-07T06:57:01;33.00;;;19.10;;
67074;SDS011;53990;50.334;18.640;2023-09-07T06:59:28;28.60;;;16.90;;
67074;SDS011;53990;50.334;18.640;2023-09-07T07:01:55;33.70;;;17.30;;
67074;SDS011;53990;50.334;18.640;2023-09-07T07:04:22;29.40;;;18.70;;
67074;SDS011;53990;50.334;18.640;2023-09-07T07:06:48;28.40;;;16.40;;
67074;SDS011;53990;50.334;18.640;2023-09-07T07:09:15;22.60;;;13.70;;
67074;SDS011;53990;50.334;18.640;2023-09-07T07:11:43;21.70;;;13.80;;
67074;SDS011;53990;50.334;18.640;2023-09-07T07:14:09;24.90;;;14.20;;
67074;SDS011;53990;50.334;18.640;2023-09-07T07:16:38;21.00;;;13.90;;
67074;SDS011;53990;50.334;18.640;2023-09-07T07:19:05;24.60;;;13.70;;
67074;SDS011;53990;50.334;18.640;2023-09-07T07:21:31;23.00;;;13.20;;
67074;SDS011;53990;50.334;18.640;2023-09-07T07:23:58;17.20;;;11.70;;
67074;SDS011;53990;50.334;18.640;2023-09-07T07:26:25;21.20;;;14.20;;
67074;SDS011;53990;50.334;18.640;2023-09-07T07:28:52;26.10;;;12.80;;
67074;SDS011;53990;50.334;18.640;2023-09-07T07:31:18;17.80;;;12.50;;
67074;SDS011;53990;50.334;18.640;2023-09-07T07:33:46;20.40;;;12.50;;
67074;SDS011;53990;50.334;18.640;2023-09-07T07:36:14;18.20;;;11.70;;
67074;SDS011;53990;50.334;18.640;2023-09-07T07:38:41;18.90;;;12.00;;
67074;SDS011;53990;50.334;18.640;2023-09-07T07:41:08;21.40;;;14.60;;
67074;SDS011;53990;50.334;18.640;2023-09-07T07:43:34;19.60;;;11.40;;
67074;SDS011;53990;50.334;18.640;2023-09-07T07:46:01;19.00;;;11.70;;
67074;SDS011;53990;50.334;18.640;2023-09-07T07:48:28;15.60;;;10.90;;
67074;SDS011;53990;50.334;18.640;2023-09-07T07:51:02;17.00;;;12.10;;
67074;SDS011;53990;50.334;18.640;2023-09-07T07:53:29;20.50;;;11.40;;
67074;SDS011;53990;50.334;18.640;2023-09-07T07:55:57;15.20;;;9.90;;
67074;SDS011;53990;50.334;18.640;2023-09-07T07:58:24;16.80;;;10.80;;
67074;SDS011;53990;50.334;18.640;2023-09-07T08:00:50;17.90;;;11.00;;
67074;SDS011;53990;50.334;18.640;2023-09-07T08:03:17;16.30;;;10.60;;
67074;SDS011;53990;50.334;18.640;2023-09-07T08:05:44;15.10;;;10.30;;
67074;SDS011;53990;50.334;18.640;2023-09-07T08:08:11;15.70;;;10.30;;
67074;SDS011;53990;50.334;18.640;2023-09-07T08:10:44;17.10;;;11.00;;
67074;SDS011;53990;50.334;18.640;2023-09-07T08:13:12;17.50;;;10.00;;
67074;SDS011;53990;50.334;18.640;2023-09-07T08:15:40;16.00;;;10.20;;
67074;SDS011;53990;50.334;18.640;2023-09-07T08:18:06;14.20;;;10.30;;
67074;SDS011;53990;50.334;18.640;2023-09-07T08:20:35;15.50;;;11.20;;
67074;SDS011;53990;50.334;18.640;2023-09-07T08:23:03;21.00;;;11.20;;
67074;SDS011;53990;50.334;18.640;2023-09-07T08:25:34;14.10;;;9.70;;
67074;SDS011;53990;50.334;18.640;2023-09-07T08:28:01;14.70;;;10.10;;
67074;SDS011;53990;50.334;18.640;2023-09-07T08:30:32;16.00;;;10.70;;
67074;SDS011;53990;50.334;18.640;2023-09-07T08:33:00;15.10;;;9.40;;
67074;SDS011;53990;50.334;18.640;2023-09-07T08:35:29;14.20;;;10.30;;
67074;SDS011;53990;50.334;18.640;2023-09-07T08:37:56;14.70;;;9.90;;
67074;SDS011;53990;50.334;18.640;2023-09-07T08:40:26;13.20;;;9.20;;
67074;SDS011;53990;50.334;18.640;2023-09-07T08:42:54;13.00;;;9.40;;
67074;SDS011;53990;50.334;18.640;2023-09-07T08:45:25;13.00;;;9.50;;
67074;SDS011;53990;50.334;18.640;2023-09-07T08:47:56;17.80;;;9.20;;
67074;SDS011;53990;50.334;18.640;2023-09-07T08:50:24;13.90;;;9.80;;
67074;SDS011;53990;50.334;18.640;2023-09-07T08:52:53;14.40;;;9.80;;
67074;SDS011;53990;50.334;18.640;2023-09-07T08:55:21;13.90;;;9.00;;
67074;SDS011;53990;50.334;18.640;2023-09-07T08:57:48;15.60;;;8.70;;
67074;SDS011;53990;50.334;18.640;2023-09-07T09:00:16;12.20;;;8.90;;
67074;SDS011;53990;50.334;18.640;2023-09-07T09:02:46;11.40;;;8.80;;
67074;SDS011;53990;50.334;18.640;2023-09-07T09:05:15;11.70;;;8.30;;
67074;SDS011;53990;50.334;18.640;2023-09-07T09:07:42;12.00;;;9.10;;
67074;SDS011;53990;50.334;18.640;2023-09-07T09:10:10;13.10;;;9.50;;
67074;SDS011;53990;50.334;18.640;2023-09-07T09:12:45;14.00;;;9.50;;
67074;SDS011;53990;50.334;18.640;2023-09-07T09:17:39;12.60;;;9.90;;
67074;SDS011;53990;50.334;18.640;2023-09-07T09:20:23;11.60;;;8.30;;
67074;SDS011;53990;50.334;18.640;2023-09-07T09:22:51;13.70;;;9.10;;
67074;SDS011;53990;50.334;18.640;2023-09-07T09:25:19;23.00;;;14.90;;
67074;SDS011;53990;50.334;18.640;2023-09-07T09:27:46;14.60;;;9.30;;
67074;SDS011;53990;50.334;18.640;2023-09-07T09:30:14;11.00;;;8.40;;
67074;SDS011;53990;50.334;18.640;2023-09-07T09:32:43;14.30;;;9.30;;
67074;SDS011;53990;50.334;18.640;2023-09-07T09:35:10;14.60;;;9.00;;
67074;SDS011;53990;50.334;18.640;2023-09-07T09:37:46;13.10;;;9.50;;
67074;SDS011;53990;50.334;18.640;2023-09-07T09:40:14;14.80;;;8.90;;
67074;SDS011;53990;50.334;18.640;2023-09-07T09:42:44;12.70;;;8.00;;
67074;SDS011;53990;50.334;18.640;2023-09-07T09:45:12;14.60;;;9.00;;
67074;SDS011;53990;50.334;18.640;2023-09-07T09:47:41;13.10;;;8.60;;
67074;SDS011;53990;50.334;18.640;2023-09-07T09:50:10;11.40;;;7.90;;
67074;SDS011;53990;50.334;18.640;2023-09-07T09:52:37;12.70;;;8.20;;
67074;SDS011;53990;50.334;18.640;2023-09-07T09:55:06;18.80;;;12.60;;
67074;SDS011;53990;50.334;18.640;2023-09-07T09:57:39;14.00;;;8.70;;
67074;SDS011;53990;50.334;18.640;2023-09-07T10:00:06;21.50;;;8.70;;
67074;SDS011;53990;50.334;18.640;2023-09-07T10:02:59;10.70;;;8.00;;
67074;SDS011;53990;50.334;18.640;2023-09-07T10:05:27;11.80;;;8.40;;
67074;SDS011;53990;50.334;18.640;2023-09-07T10:08:00;13.20;;;8.40;;
67074;SDS011;53990;50.334;18.640;2023-09-07T10:10:33;12.10;;;9.30;;
67074;SDS011;53990;50.334;18.640;2023-09-07T10:13:00;12.20;;;8.00;;
67074;SDS011;53990;50.334;18.640;2023-09-07T10:15:27;12.20;;;8.60;;
67074;SDS011;53990;50.334;18.640;2023-09-07T10:18:10;11.70;;;8.70;;
67074;SDS011;53990;50.334;18.640;2023-09-07T10:23:35;13.40;;;8.60;;
67074;SDS011;53990;50.334;18.640;2023-09-07T10:26:03;12.20;;;8.30;;
67074;SDS011;53990;50.334;18.640;2023-09-07T10:28:33;11.50;;;8.30;;
67074;SDS011;53990;50.334;18.640;2023-09-07T10:31:02;12.30;;;7.70;;
67074;SDS011;53990;50.334;18.640;2023-09-07T10:33:33;12.00;;;7.60;;
67074;SDS011;53990;50.334;18.640;2023-09-07T10:36:01;9.90;;;7.40;;
67074;SDS011;53990;50.334;18.640;2023-09-07T10:38:28;9.40;;;7.10;;
67074;SDS011;53990;50.334;18.640;2023-09-07T10:41:16;9.60;;;7.80;;
67074;SDS011;53990;50.334;18.640;2023-09-07T10:43:54;11.20;;;6.80;;
67074;SDS011;53990;50.334;18.640;2023-09-07T10:46:23;14.30;;;7.80;;
67074;SDS011;53990;50.334;18.640;2023-09-07T10:48:51;10.90;;;7.40;;
67074;SDS011;53990;50.334;18.640;2023-09-07T10:51:19;13.30;;;7.50;;
67074;SDS011;53990;50.334;18.640;2023-09-07T10:53:47;10.10;;;7.60;;
67074;SDS011;53990;50.334;18.640;2023-09-07T10:56:13;11.00;;;6.90;;
67074;SDS011;53990;50.334;18.640;2023-09-07T10:58:40;13.40;;;7.40;;
67074;SDS011;53990;50.334;18.640;2023-09-07T11:01:09;9.70;;;6.90;;
67074;SDS011;53990;50.334;18.640;2023-09-07T11:03:37;11.00;;;6.80;;
67074;SDS011;53990;50.334;18.640;2023-09-07T11:06:14;10.60;;;7.30;;
67074;SDS011;53990;50.334;18.640;2023-09-07T11:08:43;10.00;;;6.60;;
67074;SDS011;53990;50.334;18.640;2023-09-07T11:11:10;11.50;;;7.40;;
67074;SDS011;53990;50.334;18.640;2023-09-07T11:13:37;10.40;;;7.30;;
67074;SDS011;53990;50.334;18.640;2023-09-07T11:16:07;11.10;;;6.40;;
67074;SDS011;53990;50.334;18.640;2023-09-07T11:18:34;9.80;;;6.60;;
67074;SDS011;53990;50.334;18.640;2023-09-07T11:21:04;10.30;;;7.10;;
67074;SDS011;53990;50.334;18.640;2023-09-07T11:23:31;10.40;;;6.60;;
67074;SDS011;53990;50.334;18.640;2023-09-07T11:26:05;11.70;;;6.80;;
67074;SDS011;53990;50.334;18.640;2023-09-07T11:28:32;13.80;;;6.90;;
67074;SDS011;53990;50.334;18.640;2023-09-07T11:30:59;9.80;;;6.90;;
67074;SDS011;53990;50.334;18.640;2023-09-07T11:33:26;12.50;;;7.20;;
67074;SDS011;53990;50.334;18.640;2023-09-07T11:35:54;9.40;;;7.40;;
67074;SDS011;53990;50.334;18.640;2023-09-07T11:38:30;9.80;;;7.20;;
67074;SDS011;53990;50.334;18.640;2023-09-07T11:40:57;12.00;;;7.10;;
67074;SDS011;53990;50.334;18.640;2023-09-07T11:43:24;8.70;;;6.70;;
67074;SDS011;53990;50.334;18.640;2023-09-07T11:45:51;8.60;;;6.60;;
67074;SDS011;53990;50.334;18.640;2023-09-07T11:48:18;10.50;;;5.90;;
67074;SDS011;53990;50.334;18.640;2023-09-07T11:50:45;8.50;;;5.60;;
67074;SDS011;53990;50.334;18.640;2023-09-07T11:53:12;11.00;;;6.20;;
67074;SDS011;53990;50.334;18.640;2023-09-07T11:55:39;7.40;;;5.60;;
67074;SDS011;53990;50.334;18.640;2023-09-07T11:58:07;8.80;;;6.30;;
67074;SDS011;53990;50.334;18.640;2023-09-07T12:00:35;8.50;;;5.70;;
67074;SDS011;53990;50.334;18.640;2023-09-07T12:03:02;0.80;;;0.60;;
67074;SDS011;53990;50.334;18.640;2023-09-07T12:05:29;0.80;;;0.80;;
67074;SDS011;53990;50.334;18.640;2023-09-07T12:07:55;1.30;;;1.30;;
67074;SDS011;53990;50.334;18.640;2023-09-07T12:10:22;1.70;;;1.60;;
67074;SDS011;53990;50.334;18.640;2023-09-07T12:12:49;2.50;;;2.40;;
67074;SDS011;53990;50.334;18.640;2023-09-07T12:15:15;2.90;;;2.80;;
67074;SDS011;53990;50.334;18.640;2023-09-07T12:17:42;3.50;;;3.30;;
67074;SDS011;53990;50.334;18.640;2023-09-07T12:20:11;4.60;;;4.40;;
67074;SDS011;53990;50.334;18.640;2023-09-07T12:22:40;5.80;;;5.50;;
67074;SDS011;53990;50.334;18.640;2023-09-07T12:25:07;6.20;;;5.90;;
67074;SDS011;53990;50.334;18.640;2023-09-07T12:27:35;7.10;;;6.80;;
67074;SDS011;53990;50.334;18.640;2023-09-07T12:30:02;7.40;;;7.00;;
67074;SDS011;53990;50.334;18.640;2023-09-07T12:32:32;9.40;;;9.00;;
67074;SDS011;53990;50.334;18.640;2023-09-07T12:35:00;10.50;;;10.00;;
67074;SDS011;53990;50.334;18.640;2023-09-07T12:37:26;10.80;;;10.30;;
67074;SDS011;53990;50.334;18.640;2023-09-07T12:39:53;11.60;;;11.10;;
67074;SDS011;53990;50.334;18.640;2023-09-07T12:42:21;12.50;;;11.90;;
67074;SDS011;53990;50.334;18.640;2023-09-07T12:44:48;12.80;;;12.20;;
67074;SDS011;53990;50.334;18.640;2023-09-07T12:47:15;11.70;;;11.20;;
67074;SDS011;53990;50.334;18.640;2023-09-07T12:49:41;13.80;;;13.20;;
67074;SDS011;53990;50.334;18.640;2023-09-07T12:52:08;13.80;;;13.20;;
67074;SDS011;53990;50.334;18.640;2023-09-07T12:54:36;13.20;;;12.60;;
67074;SDS011;53990;50.334;18.640;2023-09-07T12:57:03;12.60;;;12.00;;
67074;SDS011;53990;50.334;18.640;2023-09-07T12:59:30;11.80;;;11.30;;
67074;SDS011;53990;50.334;18.640;2023-09-07T13:01:57;12.10;;;11.60;;
67074;SDS011;53990;50.334;18.640;2023-09-07T13:04:23;12.30;;;11.80;;
67074;SDS011;53990;50.334;18.640;2023-09-07T13:06:50;10.80;;;10.30;;
67074;SDS011;53990;50.334;18.640;2023-09-07T13:09:17;12.50;;;11.90;;
67074;SDS011;53990;50.334;18.640;2023-09-07T13:11:43;10.80;;;10.30;;
67074;SDS011;53990;50.334;18.640;2023-09-07T13:14:10;10.90;;;10.40;;
67074;SDS011;53990;50.334;18.640;2023-09-07T13:16:37;10.30;;;9.80;;
67074;SDS011;53990;50.334;18.640;2023-09-07T13:19:03;9.80;;;9.30;;
67074;SDS011;53990;50.334;18.640;2023-09-07T13:21:30;8.50;;;8.10;;
67074;SDS011;53990;50.334;18.640;2023-09-07T13:23:57;9.50;;;9.10;;
67074;SDS011;53990;50.334;18.640;2023-09-07T13:26:23;9.00;;;8.60;;
67074;SDS011;53990;50.334;18.640;2023-09-07T13:28:50;8.40;;;8.00;;
67074;SDS011;53990;50.334;18.640;2023-09-07T13:31:17;8.00;;;7.60;;
67074;SDS011;53990;50.334;18.640;2023-09-07T13:33:43;7.10;;;6.80;;
67074;SDS011;53990;50.334;18.640;2023-09-07T13:36:10;7.20;;;6.80;;
67074;SDS011;53990;50.334;18.640;2023-09-07T13:38:37;6.10;;;5.80;;
67074;SDS011;53990;50.334;18.640;2023-09-07T13:41:04;5.70;;;5.40;;
67074;SDS011;53990;50.334;18.640;2023-09-07T13:43:30;4.90;;;4.60;;
67074;SDS011;53990;50.334;18.640;2023-09-07T13:45:57;4.70;;;4.50;;
67074;SDS011;53990;50.334;18.640;2023-09-07T13:48:24;4.00;;;3.80;;
67074;SDS011;53990;50.334;18.640;2023-09-07T13:50:50;4.20;;;4.00;;
67074;SDS011;53990;50.334;18.640;2023-09-07T13:53:17;3.40;;;3.20;;
67074;SDS011;53990;50.334;18.640;2023-09-07T13:55:44;3.40;;;3.20;;
67074;SDS011;53990;50.334;18.640;2023-09-07T13:58:12;3.00;;;2.80;;
67074;SDS011;53990;50.334;18.640;2023-09-07T14:00:39;2.40;;;2.30;;
67074;SDS011;53990;50.334;18.640;2023-09-07T14:03:06;2.30;;;2.20;;
67074;SDS011;53990;50.334;18.640;2023-09-07T14:05:33;2.10;;;2.00;;
67074;SDS011;53990;50.334;18.640;2023-09-07T14:07:59;2.10;;;2.00;;
67074;SDS011;53990;50.334;18.640;2023-09-07T14:10:26;1.90;;;1.80;;
67074;SDS011;53990;50.334;18.640;2023-09-07T14:12:53;1.90;;;1.80;;
67074;SDS011;53990;50.334;18.640;2023-09-07T14:15:20;1.70;;;1.60;;
67074;SDS011;53990;50.334;18.640;2023-09-07T14:17:46;1.40;;;1.40;;
67074;SDS011;53990;50.334;18.640;2023-09-07T14:20:13;1.30;;;1.30;;
67074;SDS011;53990;50.334;18.640;2023-09-07T14:22:40;1.10;;;1.10;;
67074;SDS011;53990;50.334;18.640;2023-09-07T14:25:07;0.90;;;0.90;;